Time;durP1;ratioP1;P1;durP2;ratioP2;P2;SDS_P1;SDS_P2;PMS_P1;PMS_P2;Temp;Humidity;BMP_temperature;BMP_pressure;BME280_temperature;BME280_humidity;BME280_pressure;Samples;Min_cycle;Max_cycle;Signal;HPM_P1;HPM_P2
2022/04/16 00:01:21;;;;;;;7.83;4.00;;;;;;;13.49;56.39;100655.13;5405388;32;44311;-66
2022/04/16 00:04:23;;;;;;;9.37;4.70;;;;;;;13.17;57.83;100648.66;5419942;32;34773;-66
2022/04/16 00:07:26;;;;;;;8.63;4.43;;;;;;;12.77;59.43;100654.88;5397643;32;35482;-66
2022/04/16 00:10:28;;;;;;;8.93;4.50;;;;;;;13.62;56.50;100647.47;5410686;32;34724;-66
2022/04/16 00:13:32;;;;;;;8.80;4.90;;;;;;;13.09;58.15;100648.16;5419922;32;34557;-67
2022/04/16 00:16:34;;;;;;;8.37;4.83;;;;;;;13.28;57.79;100649.94;5401476;32;34720;-70
2022/04/16 00:19:36;;;;;;;9.77;5.00;;;;;;;13.33;57.28;100649.72;5420631;32;34991;-68
2022/04/16 00:22:38;;;;;;;10.10;4.50;;;;;;;13.28;57.21;100657.00;5401500;32;34841;-67
2022/04/16 00:25:41;;;;;;;11.00;5.90;;;;;;;13.26;57.41;100649.12;5406087;32;35371;-67
2022/04/16 00:28:44;;;;;;;10.93;6.30;;;;;;;12.86;58.91;100652.66;5414611;32;34790;-68
2022/04/16 00:31:46;;;;;;;10.70;5.50;;;;;;;12.50;60.56;100652.50;5398173;32;36616;-65
2022/04/16 00:34:48;;;;;;;10.60;6.30;;;;;;;12.79;59.46;100647.75;5425952;32;34764;-66
2022/04/16 00:37:51;;;;;;;10.67;6.10;;;;;;;12.85;58.69;100645.69;5400704;32;34299;-65
2022/04/16 00:40:53;;;;;;;13.00;7.17;;;;;;;12.35;60.89;100640.81;5422105;32;45830;-68
2022/04/16 00:43:55;;;;;;;10.97;5.73;;;;;;;12.48;60.36;100646.44;5409175;32;34666;-65
2022/04/16 00:46:57;;;;;;;10.93;6.23;;;;;;;13.07;58.76;100639.44;5405152;32;34745;-67
2022/04/16 00:49:59;;;;;;;10.27;6.40;;;;;;;13.44;56.95;100646.56;5422175;32;35491;-65
2022/04/16 00:53:02;;;;;;;10.63;6.03;;;;;;;12.75;59.65;100647.00;5395155;32;34887;-68
2022/04/16 00:56:06;;;;;;;10.80;6.20;;;;;;;12.36;61.36;100647.81;5395649;32;34469;-71
2022/04/16 00:59:08;;;;;;;10.93;6.37;;;;;;;12.85;59.55;100648.31;5394792;32;35911;-66
2022/04/16 01:02:10;;;;;;;11.67;6.90;;;;;;;13.11;58.51;100644.53;5415953;32;36135;-69
2022/04/16 01:05:12;;;;;;;11.80;6.77;;;;;;;12.69;59.40;100648.16;5407758;32;35709;-66
2022/04/16 01:08:18;;;;;;;11.77;7.00;;;;;;;12.08;61.99;100649.88;5407944;32;34819;-66
2022/04/16 01:11:21;;;;;;;10.40;6.60;;;;;;;12.35;60.86;100643.44;5411310;32;46702;-67
2022/04/16 01:14:23;;;;;;;11.37;6.47;;;;;;;12.28;61.05;100638.50;5412375;32;34750;-66
2022/04/16 01:17:25;;;;;;;14.40;8.20;;;;;;;12.19;61.87;100639.75;5410520;32;35016;-69
2022/04/16 01:20:27;;;;;;;12.33;6.63;;;;;;;12.23;61.75;100641.31;5397055;32;36198;-66
2022/04/16 01:23:30;;;;;;;12.60;6.53;;;;;;;12.60;60.23;100652.97;5417591;32;35914;-66
2022/04/16 01:26:32;;;;;;;12.25;6.97;;;;;;;12.54;59.88;100650.59;5394553;32;34370;-67
2022/04/16 01:29:35;;;;;;;13.93;7.40;;;;;;;12.21;61.22;100645.81;5404903;32;33726;-68
2022/04/16 01:32:37;;;;;;;13.38;8.00;;;;;;;12.18;60.18;100645.97;5414443;32;34913;-69
2022/04/16 01:35:39;;;;;;;12.17;7.03;;;;;;;11.73;61.76;100648.66;5408427;32;34813;-66
2022/04/16 01:38:41;;;;;;;13.80;7.67;;;;;;;11.86;61.29;100640.22;5420718;32;35107;-66
2022/04/16 01:41:43;;;;;;;13.47;7.97;;;;;;;10.84;65.20;100658.13;5402236;32;35856;-65
2022/04/16 01:44:45;;;;;;;14.23;8.40;;;;;;;11.16;64.32;100653.47;5422079;32;34834;-68
2022/04/16 01:47:50;;;;;;;14.33;8.37;;;;;;;11.21;64.40;100648.88;5417025;32;35273;-65
2022/04/16 01:50:53;;;;;;;18.17;9.53;;;;;;;11.27;63.84;100653.03;5407868;32;43687;-67
2022/04/16 01:53:56;;;;;;;17.25;9.38;;;;;;;10.88;65.06;100660.63;5409170;32;34121;-65
2022/04/16 01:56:59;;;;;;;15.07;8.95;;;;;;;11.23;63.89;100660.19;5372980;32;34088;-68
2022/04/16 02:00:03;;;;;;;13.98;7.80;;;;;;;11.27;63.97;100656.56;5414708;32;34682;-68
2022/04/16 02:03:07;;;;;;;13.00;7.60;;;;;;;11.94;60.51;100642.53;5393013;32;34756;-65
2022/04/16 02:06:09;;;;;;;14.17;8.27;;;;;;;12.35;59.27;100630.28;5413097;32;34798;-69
2022/04/16 02:09:11;;;;;;;15.87;9.70;;;;;;;11.34;63.31;100633.50;5399507;32;33988;-68
2022/04/16 02:12:14;;;;;;;14.93;9.07;;;;;;;11.15;63.31;100622.81;5400248;32;34796;-66
2022/04/16 02:15:16;;;;;;;16.73;8.97;;;;;;;10.72;66.24;100627.00;5407315;32;34632;-68
2022/04/16 02:18:18;;;;;;;16.00;9.60;;;;;;;10.90;65.20;100629.87;5405014;32;34933;-68
2022/04/16 02:21:22;;;;;;;17.63;9.80;;;;;;;10.44;66.73;100626.28;5418891;32;35242;-68
2022/04/16 02:24:24;;;;;;;16.13;9.87;;;;;;;10.62;65.57;100630.00;5401158;32;44459;-66
2022/04/16 02:27:26;;;;;;;16.43;9.33;;;;;;;10.57;65.93;100628.41;5407465;32;34677;-66
2022/04/16 02:30:30;;;;;;;18.97;9.70;;;;;;;11.04;64.09;100622.34;5404827;32;35035;-66
2022/04/16 02:33:32;;;;;;;17.80;8.80;;;;;;;10.51;67.30;100622.53;5393616;32;34658;-66
2022/04/16 02:36:34;;;;;;;15.37;9.27;;;;;;;11.09;64.43;100628.31;5414198;32;34698;-70
2022/04/16 02:39:36;;;;;;;14.80;8.77;;;;;;;10.70;65.28;100623.59;5409957;32;35835;-66
2022/04/16 02:42:41;;;;;;;17.10;9.50;;;;;;;10.96;64.23;100625.25;5424046;32;34662;-68
2022/04/16 02:49:04;;;;;;;14.50;8.73;;;;;;;10.52;66.43;100614.56;5403888;32;34623;-65
2022/04/16 02:52:07;;;;;;;15.63;8.50;;;;;;;11.03;64.17;100610.13;5412308;32;35426;-66
2022/04/16 02:55:09;;;;;;;13.40;7.78;;;;;;;10.95;63.91;100612.16;5410975;32;34772;-68
2022/04/16 02:58:12;;;;;;;15.23;8.97;;;;;;;10.85;64.74;100611.66;5402053;32;34866;-67
2022/04/16 03:01:15;;;;;;;14.13;7.80;;;;;;;10.34;66.53;100598.59;5396845;32;34785;-67
2022/04/16 03:04:17;;;;;;;13.23;7.68;;;;;;;10.64;65.71;100607.19;5426973;32;34777;-69
2022/04/16 03:07:19;;;;;;;14.30;8.03;;;;;;;10.60;65.50;100610.81;5403855;32;35189;-68
2022/04/16 03:10:21;;;;;;;14.37;7.77;;;;;;;10.16;66.44;100608.78;5410398;32;43637;-66
2022/04/16 03:13:23;;;;;;;13.77;8.20;;;;;;;10.53;65.32;100610.16;5420139;32;34675;-65
2022/04/16 03:19:46;;;;;;;14.20;7.87;;;;;;;10.11;67.01;100608.09;5428051;32;36069;-68
2022/04/16 03:22:48;;;;;;;13.37;8.03;;;;;;;9.94;67.07;100613.03;5403955;32;34879;-67
2022/04/16 03:25:53;;;;;;;13.60;7.90;;;;;;;10.15;66.42;100609.69;5407626;32;35201;-65
2022/04/16 03:28:55;;;;;;;15.30;8.33;;;;;;;10.32;66.00;100606.53;5411768;32;44777;-68
2022/04/16 03:31:57;;;;;;;12.93;7.60;;;;;;;10.54;65.29;100611.88;5389728;32;34608;-66
2022/04/16 03:34:59;;;;;;;13.13;6.80;;;;;;;10.52;65.18;100618.97;5426405;32;34516;-70
2022/04/16 03:38:01;;;;;;;13.70;7.93;;;;;;;10.33;65.47;100613.50;5404062;32;34759;-66
2022/04/16 03:41:05;;;;;;;17.07;6.90;;;;;;;10.03;66.87;100615.34;5414884;32;34947;-66
2022/04/16 03:44:07;;;;;;;13.03;7.43;;;;;;;10.06;66.83;100611.78;5402272;32;35499;-69
2022/04/16 03:47:11;;;;;;;13.20;6.90;;;;;;;10.73;64.29;100615.56;5403095;32;35949;-68
2022/04/16 03:50:13;;;;;;;12.63;6.87;;;;;;;10.13;66.87;100608.88;5407976;32;34012;-67
2022/04/16 03:53:15;;;;;;;12.33;6.67;;;;;;;10.39;65.01;100626.44;5395162;32;34555;-65
2022/04/16 04:02:58;;;;;;;11.63;6.20;;;;;;;10.40;64.90;100611.50;5413547;32;44386;-68
2022/04/16 04:06:01;;;;;;;12.20;6.30;;;;;;;10.23;65.56;100623.44;5413654;32;34671;-69
2022/04/16 04:09:04;;;;;;;10.37;5.97;;;;;;;11.02;62.41;100609.25;5408268;32;35392;-69
2022/04/16 04:12:13;;;;;;;10.90;5.90;;;;;;;11.37;60.87;100625.47;5410424;32;34798;-65
2022/04/16 04:15:15;;;;;;;13.10;6.60;;;;;;;10.98;61.93;100628.69;5395973;32;36316;-68
2022/04/16 04:18:17;;;;;;;14.27;6.50;;;;;;;11.35;60.73;100633.44;5419357;32;34816;-69
2022/04/16 04:21:19;;;;;;;16.70;7.60;;;;;;;10.88;62.03;100637.81;5394249;32;34089;-69
2022/04/16 04:24:21;;;;;;;10.77;5.57;;;;;;;11.24;61.00;100635.59;5407915;32;46901;-66
2022/04/16 04:27:23;;;;;;;12.03;6.60;;;;;;;10.15;64.24;100651.72;5412812;32;35270;-68
2022/04/16 04:30:25;;;;;;;13.00;6.13;;;;;;;10.74;62.90;100654.09;5396156;32;36504;-65
2022/04/16 04:33:28;;;;;;;10.93;6.43;;;;;;;10.85;61.70;100646.69;5420163;32;34713;-67
2022/04/16 04:36:30;;;;;;;10.50;5.93;;;;;;;11.23;60.67;100643.56;5403398;32;36127;-68
2022/04/16 04:39:32;;;;;;;12.23;6.23;;;;;;;10.93;61.37;100642.91;5425410;32;34584;-69
2022/04/16 04:42:35;;;;;;;10.97;5.53;;;;;;;10.80;61.97;100643.34;5415146;32;35242;-67
2022/04/16 04:45:38;;;;;;;10.25;5.97;;;;;;;10.80;61.57;100653.87;5387268;32;35079;-66
2022/04/16 04:48:40;;;;;;;11.43;6.07;;;;;;;10.37;62.94;100646.66;5419340;32;35332;-65
2022/04/16 04:51:43;;;;;;;10.07;5.20;;;;;;;11.11;60.94;100655.38;5404089;32;34878;-66
2022/04/16 04:54:45;;;;;;;11.10;5.83;;;;;;;11.00;60.84;100658.41;5425173;32;34689;-68
2022/04/16 04:57:48;;;;;;;10.87;6.10;;;;;;;11.09;61.02;100657.22;5386852;32;35723;-67
2022/04/16 05:00:50;;;;;;;12.60;5.68;;;;;;;10.50;62.15;100662.84;5410785;32;34699;-70
2022/04/16 05:03:52;;;;;;;11.40;6.33;;;;;;;10.65;61.55;100667.56;5408511;32;44516;-66
2022/04/16 05:06:55;;;;;;;10.57;5.33;;;;;;;11.45;59.31;100667.28;5403736;32;35222;-69
2022/04/16 05:09:57;;;;;;;9.80;5.70;;;;;;;11.29;59.31;100675.75;5393764;32;35790;-69
2022/04/16 05:12:59;;;;;;;12.60;5.93;;;;;;;11.34;58.96;100676.44;5402286;32;34918;-66
2022/04/16 05:16:01;;;;;;;10.63;6.10;;;;;;;11.57;58.90;100665.03;5427366;32;34981;-68
2022/04/16 05:19:06;;;;;;;10.17;5.20;;;;;;;12.12;57.11;100669.94;5400091;32;35704;-69
2022/04/16 05:22:08;;;;;;;12.60;5.87;;;;;;;11.78;57.02;100673.00;5420708;32;35409;-66
2022/04/16 05:25:11;;;;;;;9.53;5.73;;;;;;;11.26;59.69;100675.00;5406882;32;35156;-68
2022/04/16 05:28:13;;;;;;;9.37;5.50;;;;;;;11.76;57.58;100673.06;5400432;32;35440;-66
2022/04/16 05:31:15;;;;;;;10.93;5.53;;;;;;;11.80;56.97;100673.81;5410279;32;36735;-66
2022/04/16 05:34:20;;;;;;;10.43;5.93;;;;;;;11.57;57.31;100675.56;5408853;32;35703;-69
2022/04/16 05:37:22;;;;;;;10.77;5.47;;;;;;;11.22;58.37;100679.53;5413571;32;44520;-66
2022/04/16 05:40:24;;;;;;;9.63;5.17;;;;;;;10.76;60.14;100690.87;5394479;32;35343;-66
2022/04/16 05:43:26;;;;;;;9.43;5.00;;;;;;;11.74;57.45;100698.63;5402096;32;34887;-66
2022/04/16 05:46:28;;;;;;;10.03;5.00;;;;;;;11.46;58.33;100693.53;5394564;32;35009;-66
2022/04/16 05:49:31;;;;;;;8.63;4.43;;;;;;;12.62;53.85;100688.00;5411289;32;34533;-68
2022/04/16 05:52:34;;;;;;;11.27;4.83;;;;;;;11.33;57.67;100700.16;5414734;32;34368;-66
2022/04/16 05:55:37;;;;;;;9.85;5.10;;;;;;;11.70;57.62;100709.31;5378224;32;35317;-69
2022/04/16 05:58:40;;;;;;;9.38;5.35;;;;;;;11.41;58.06;100708.66;5397703;32;35296;-66
2022/04/16 06:01:43;;;;;;;10.60;5.20;;;;;;;11.88;56.40;100709.50;5398241;32;35091;-65
2022/04/16 06:04:45;;;;;;;8.57;4.62;;;;;;;11.68;57.02;100712.00;5401923;32;34824;-69
2022/04/16 06:07:48;;;;;;;9.90;4.70;;;;;;;11.79;56.97;100719.50;5406931;32;35356;-66
2022/04/16 06:10:50;;;;;;;9.05;4.50;;;;;;;12.56;55.01;100717.28;5394146;32;34632;-69
2022/04/16 06:13:52;;;;;;;9.50;4.73;;;;;;;11.42;57.90;100723.53;5412838;32;44483;-66
2022/04/16 06:16:54;;;;;;;8.63;5.20;;;;;;;12.26;55.19;100720.28;5395925;32;34888;-69
2022/04/16 06:19:57;;;;;;;8.90;4.70;;;;;;;12.51;53.71;100716.62;5427476;32;37746;-66
2022/04/16 06:22:59;;;;;;;9.07;4.47;;;;;;;11.70;56.76;100720.69;5401512;32;35108;-69
2022/04/16 06:26:01;;;;;;;9.83;4.50;;;;;;;13.02;52.73;100718.81;5394080;32;33050;-65
2022/04/16 06:29:03;;;;;;;8.40;4.50;;;;;;;12.35;54.67;100722.53;5411751;32;34873;-69
2022/04/16 06:32:06;;;;;;;11.00;4.90;;;;;;;12.51;53.67;100721.91;5398390;32;35410;-67
2022/04/16 06:35:08;;;;;;;9.95;4.28;;;;;;;12.01;55.66;100722.19;5426580;32;36698;-68
2022/04/16 06:38:10;;;;;;;8.27;4.77;;;;;;;12.85;53.53;100724.81;5403109;32;34953;-68
2022/04/16 06:41:12;;;;;;;9.77;4.50;;;;;;;12.23;54.89;100730.94;5409316;32;34273;-66
2022/04/16 06:44:15;;;;;;;9.67;4.77;;;;;;;11.91;55.83;100743.62;5409778;32;35698;-68
2022/04/16 06:47:20;;;;;;;9.23;4.40;;;;;;;11.80;56.05;100739.66;5414254;32;34157;-65
2022/04/16 06:50:22;;;;;;;9.53;4.50;;;;;;;12.28;54.69;100752.69;5404086;32;44559;-66
2022/04/16 06:53:27;;;;;;;8.33;4.47;;;;;;;12.01;55.91;100752.00;5405420;32;35217;-66
2022/04/16 06:56:30;;;;;;;9.40;4.40;;;;;;;12.40;54.24;100749.56;5397873;32;32841;-66
2022/04/16 06:59:32;;;;;;;8.47;4.17;;;;;;;11.22;57.44;100758.47;5409826;32;35855;-69
2022/04/16 07:02:34;;;;;;;7.50;4.27;;;;;;;11.69;56.75;100760.25;5410048;32;34777;-65
2022/04/16 07:05:37;;;;;;;8.07;4.57;;;;;;;13.34;52.24;100756.16;5410888;32;34886;-70
2022/04/16 07:08:39;;;;;;;7.60;4.10;;;;;;;12.96;52.50;100745.47;5408166;32;34942;-67
2022/04/16 07:11:41;;;;;;;7.73;4.20;;;;;;;12.91;53.26;100756.22;5416154;32;35610;-66
2022/04/16 07:14:43;;;;;;;8.83;4.60;;;;;;;12.88;52.91;100766.91;5411009;32;34300;-68
2022/04/16 07:17:45;;;;;;;6.33;3.63;;;;;;;12.92;52.70;100765.84;5417569;32;34880;-69
2022/04/16 07:20:47;;;;;;;8.13;4.10;;;;;;;11.81;55.72;100778.28;5396269;32;35758;-67
2022/04/16 07:23:49;;;;;;;8.67;4.50;;;;;;;12.47;54.18;100776.53;5406356;32;35007;-66
2022/04/16 07:26:54;;;;;;;8.87;4.40;;;;;;;12.27;54.70;100781.75;5389192;32;44425;-66
2022/04/16 07:29:58;;;;;;;8.57;4.67;;;;;;;12.74;53.34;100772.75;5402574;32;34749;-70
2022/04/16 07:33:00;;;;;;;7.67;4.03;;;;;;;12.70;53.04;100775.59;5415675;32;34554;-66
2022/04/16 07:36:03;;;;;;;7.23;3.97;;;;;;;13.13;51.31;100779.87;5394916;32;34910;-66
2022/04/16 07:39:05;;;;;;;7.87;4.00;;;;;;;13.73;49.54;100777.28;5422760;32;34583;-66
2022/04/16 07:42:07;;;;;;;9.90;3.97;;;;;;;14.31;48.72;100775.38;5387781;32;34942;-69
2022/04/16 07:45:09;;;;;;;9.67;4.03;;;;;;;13.09;51.43;100782.75;5423671;32;34624;-69
2022/04/16 07:48:11;;;;;;;7.50;3.57;;;;;;;14.14;49.16;100779.75;5403216;32;35346;-67
2022/04/16 07:51:13;;;;;;;7.93;3.77;;;;;;;13.84;49.66;100774.97;5405640;32;35579;-67
2022/04/16 07:54:17;;;;;;;7.40;3.60;;;;;;;14.18;48.63;100771.63;5423649;32;35102;-66
2022/04/16 07:57:19;;;;;;;;;;;;;;;14.38;48.45;100768.00;5376871;32;34766;-66
2022/04/16 08:00:21;;;;;;;11.27;3.70;;;;;;;15.36;46.05;100763.03;5410671;32;34717;-66
2022/04/16 08:03:23;;;;;;;9.50;3.77;;;;;;;15.69;44.08;100761.25;5405450;32;34895;-68
2022/04/16 08:06:26;;;;;;;10.75;3.62;;;;;;;15.34;45.58;100763.13;5417416;32;34640;-69
2022/04/16 08:09:28;;;;;;;7.80;3.53;;;;;;;15.78;43.88;100759.03;5411920;32;38572;-67
2022/04/16 08:12:30;;;;;;;7.33;3.73;;;;;;;15.26;45.39;100767.09;5400592;32;34827;-69
2022/04/16 08:15:33;;;;;;;8.30;3.70;;;;;;;16.93;40.58;100764.84;5425159;32;35252;-69
2022/04/16 08:18:36;;;;;;;6.10;3.50;;;;;;;17.20;38.80;100767.66;5390532;32;35666;-66
2022/04/16 08:21:39;;;;;;;7.25;3.83;;;;;;;17.84;37.65;100768.16;5413832;32;34773;-67
2022/04/16 08:24:42;;;;;;;7.60;3.55;;;;;;;19.52;35.10;100766.72;5390271;32;34647;-69
2022/04/16 08:27:45;;;;;;;7.60;4.07;;;;;;;19.10;33.91;100768.75;5412035;32;34121;-69
2022/04/16 08:30:47;;;;;;;6.97;3.58;;;;;;;19.01;34.58;100775.56;5401813;32;34507;-66
2022/04/16 08:33:50;;;;;;;7.70;4.03;;;;;;;16.33;39.64;100786.00;5392804;32;35552;-69
2022/04/16 08:36:52;;;;;;;7.12;4.12;;;;;;;16.29;40.34;100789.75;5396973;32;45169;-67
2022/04/16 08:39:54;;;;;;;6.45;3.37;;;;;;;17.90;37.26;100772.22;5410488;32;34201;-67
2022/04/16 08:42:56;;;;;;;6.67;3.77;;;;;;;18.20;36.19;100772.91;5416249;32;34561;-69
2022/04/16 08:45:58;;;;;;;7.82;3.60;;;;;;;17.74;36.68;100778.50;5408039;32;36055;-66
2022/04/16 08:49:01;;;;;;;6.25;3.58;;;;;;;17.87;36.49;100771.47;5418846;32;37569;-69
2022/04/16 08:52:04;;;;;;;6.68;3.53;;;;;;;16.71;38.69;100781.19;5421546;32;34760;-66
2022/04/16 08:55:09;;;;;;;6.78;3.28;;;;;;;16.04;39.95;100787.66;5401041;32;35592;-67
2022/04/16 08:58:11;;;;;;;5.77;3.07;;;;;;;16.18;39.89;100779.78;5396421;32;34842;-68
2022/04/16 09:01:13;;;;;;;5.63;3.20;;;;;;;15.39;41.67;100794.66;5403797;32;35369;-67
2022/04/16 09:04:22;;;;;;;6.47;3.30;;;;;;;15.42;41.68;100794.50;5421064;32;35379;-66
2022/04/16 09:07:24;;;;;;;6.67;3.20;;;;;;;15.73;40.85;100796.41;5392509;32;45269;-69
2022/04/16 09:10:32;;;;;;;5.73;3.13;;;;;;;16.32;39.70;100794.06;5403846;32;34548;-70
2022/04/16 09:13:34;;;;;;;5.43;2.87;;;;;;;16.28;39.39;100785.41;5405073;32;34846;-67
2022/04/16 09:16:39;;;;;;;4.93;2.65;;;;;;;15.66;40.38;100803.84;5402486;32;35473;-68
2022/04/16 09:19:41;;;;;;;5.23;2.80;;;;;;;15.22;40.88;100797.34;5408756;32;34568;-66
2022/04/16 09:22:49;;;;;;;6.70;2.90;;;;;;;16.00;39.78;100796.69;5398186;32;34755;-66
2022/04/16 09:25:51;;;;;;;6.07;2.80;;;;;;;16.09;40.18;100800.63;5413400;32;44572;-68
2022/04/16 09:28:54;;;;;;;6.97;3.03;;;;;;;14.75;43.60;100811.16;5402313;32;35218;-68
2022/04/16 09:31:56;;;;;;;5.82;2.30;;;;;;;14.79;44.15;100808.31;5394129;32;34701;-66
2022/04/16 09:34:58;;;;;;;3.80;2.40;;;;;;;15.86;42.05;100799.25;5425569;32;34822;-68
2022/04/16 09:38:01;;;;;;;6.50;2.70;;;;;;;15.06;43.43;100808.69;5411676;32;34582;-69
2022/04/16 09:41:05;;;;;;;5.83;2.70;;;;;;;14.87;44.67;100806.13;5411456;32;34445;-66
2022/04/16 09:44:18;;;;;;;9.70;2.60;;;;;;;15.89;42.12;100804.38;5399430;32;35758;-67
2022/04/16 09:47:27;;;;;;;5.53;2.60;;;;;;;14.66;44.63;100806.34;5402564;32;45192;-69
2022/04/16 09:50:30;;;;;;;4.00;2.23;;;;;;;15.39;42.98;100805.25;5403407;32;35405;-70
2022/04/16 09:53:36;;;;;;;4.97;2.40;;;;;;;15.70;42.46;100810.66;5403237;32;34731;-70
2022/04/16 09:56:40;;;;;;;4.37;2.50;;;;;;;14.37;45.61;100819.19;5393739;32;34465;-68
2022/04/16 09:59:43;;;;;;;4.53;2.50;;;;;;;15.58;42.71;100813.94;5385780;32;35566;-68
2022/04/16 10:02:46;;;;;;;6.73;2.43;;;;;;;14.49;44.65;100801.88;5424733;32;34948;-69
2022/04/16 10:05:48;;;;;;;6.28;2.90;;;;;;;15.55;42.76;100795.56;5401690;32;35106;-66
2022/04/16 10:08:51;;;;;;;8.83;2.70;;;;;;;15.08;44.28;100806.00;5398753;32;43578;-67
2022/04/16 10:15:21;;;;;;;3.80;2.07;;;;;;;16.16;41.58;100802.84;5405095;32;36256;-67
2022/04/16 10:18:24;;;;;;;6.57;2.97;;;;;;;16.75;39.92;100797.78;5430615;32;46969;-66
2022/04/16 10:21:32;;;;;;;5.50;2.60;;;;;;;15.10;43.46;100804.97;5402499;32;34319;-67
2022/04/16 10:24:34;;;;;;;10.23;4.57;;;;;;;15.52;42.82;100805.47;5415443;32;35394;-69
2022/04/16 10:27:40;;;;;;;3.40;2.20;;;;;;;16.68;39.71;100788.41;5414612;32;34208;-70
2022/04/16 10:30:50;;;;;;;4.53;2.23;;;;;;;16.93;39.43;100795.84;5401626;32;34708;-69
2022/04/16 10:33:59;;;;;;;3.83;2.23;;;;;;;17.63;37.07;100788.91;5425898;32;44814;-69
2022/04/16 10:37:01;;;;;;;3.73;2.10;;;;;;;17.74;36.65;100775.84;5402871;32;35111;-66
2022/04/16 10:40:23;;;;;;;4.82;2.45;;;;;;;17.90;36.21;100782.84;5429842;32;34736;-67
2022/04/16 10:43:32;;;;;;;5.27;2.27;;;;;;;18.16;35.30;100783.84;5416150;32;44606;-69
2022/04/16 10:46:55;;;;;;;4.95;2.00;;;;;;;19.25;34.08;100772.16;5395208;32;34951;-67
2022/04/16 10:49:57;;;;;;;4.00;2.35;;;;;;;21.98;28.90;100759.69;5431035;32;44430;-67
2022/04/16 10:53:01;;;;;;;;;;;;;;;21.33;29.50;100768.47;5404884;32;34741;-70
2022/04/16 10:56:06;;;;;;;3.03;2.15;;;;;;;19.44;32.32;100772.56;5408813;32;35702;-69
2022/04/16 10:59:10;;;;;;;3.72;2.33;;;;;;;19.02;33.00;100779.06;5401172;32;35071;-68
2022/04/16 11:02:27;;;;;;;2.30;1.62;;;;;;;21.40;29.35;100767.00;5401634;32;35721;-69
2022/04/16 11:05:35;;;;;;;5.50;2.00;;;;;;;18.91;33.14;100779.78;5409501;32;44288;-68
2022/04/16 11:08:38;;;;;;;2.95;1.70;;;;;;;16.58;37.97;100785.47;5392245;32;34184;-67
2022/04/16 11:11:41;;;;;;;4.30;1.90;;;;;;;16.03;39.78;100799.16;5411634;32;34894;-70
2022/04/16 11:14:45;;;;;;;4.03;1.83;;;;;;;15.46;41.37;100796.06;5398604;32;34776;-68
2022/04/16 11:17:53;;;;;;;6.53;2.67;;;;;;;14.63;43.44;100810.00;5407658;32;35615;-68
2022/04/16 11:20:56;;;;;;;4.23;2.13;;;;;;;15.82;40.71;100793.25;5414259;32;44802;-70
2022/04/16 11:24:04;;;;;;;6.05;2.40;;;;;;;15.08;42.57;100800.72;5404160;32;35294;-66
2022/04/16 11:37:09;;;;;;;6.37;2.90;;;;;;;14.75;45.45;100811.16;5412135;32;34980;-67
2022/04/16 11:40:11;;;;;;;3.57;1.97;;;;;;;14.46;47.13;100802.91;5401168;32;35275;-69
2022/04/16 11:43:13;;;;;;;4.00;1.70;;;;;;;14.99;45.83;100807.31;5413286;32;35272;-69
2022/04/16 11:46:15;;;;;;;3.37;1.90;;;;;;;14.71;46.89;100813.13;5402219;32;35291;-69
2022/04/16 11:49:17;;;;;;;3.53;2.00;;;;;;;14.76;46.90;100803.19;5409057;32;35533;-70
2022/04/16 11:52:24;;;;;;;2.60;1.70;;;;;;;14.55;47.37;100797.13;5415152;32;35228;-69
2022/04/16 11:55:26;;;;;;;3.63;2.03;;;;;;;15.10;45.24;100791.75;5386506;32;44426;-68
2022/04/16 11:58:29;;;;;;;4.07;2.00;;;;;;;15.37;43.84;100785.94;5399374;32;34251;-68
2022/04/16 12:01:31;;;;;;;3.50;1.98;;;;;;;14.88;45.47;100781.41;5390866;32;34249;-69
2022/04/16 12:04:34;;;;;;;3.97;1.90;;;;;;;15.16;44.18;100778.19;5428309;32;34796;-66
2022/04/16 12:07:39;;;;;;;5.70;2.00;;;;;;;14.69;45.19;100777.97;5407145;32;34918;-68
2022/04/16 12:10:46;;;;;;;3.43;1.90;;;;;;;16.31;41.73;100773.78;5401574;32;34764;-67
2022/04/16 12:13:51;;;;;;;3.47;2.03;;;;;;;16.82;40.79;100755.81;5407992;32;34985;-66
2022/04/16 12:16:58;;;;;;;3.07;1.83;;;;;;;16.72;41.25;100753.69;5388831;32;45163;-67
2022/04/16 12:20:08;;;;;;;3.20;1.57;;;;;;;15.33;42.94;100769.37;5415244;32;34168;-66
2022/04/16 12:23:14;;;;;;;3.97;1.60;;;;;;;16.26;39.84;100752.81;5390811;32;35931;-67
2022/04/16 12:26:17;;;;;;;2.17;1.60;;;;;;;16.62;37.84;100751.66;5407979;32;35237;-67
2022/04/16 12:29:26;;;;;;;2.00;1.30;;;;;;;16.98;36.80;100751.28;5408829;32;35346;-66
2022/04/16 12:32:29;;;;;;;4.10;1.80;;;;;;;16.42;37.04;100744.81;5400627;32;45671;-71
2022/04/16 12:35:35;;;;;;;2.53;1.40;;;;;;;16.09;37.74;100755.56;5402890;32;34735;-67
2022/04/16 12:38:37;;;;;;;3.50;1.50;;;;;;;15.85;38.04;100747.19;5391645;32;34656;-69
2022/04/16 12:41:39;;;;;;;5.23;2.00;;;;;;;15.91;38.24;100754.81;5424553;32;34628;-71
2022/04/16 12:44:41;;;;;;;5.20;1.43;;;;;;;15.75;38.13;100752.13;5396207;32;35123;-69
2022/04/16 12:47:44;;;;;;;6.13;1.93;;;;;;;16.35;36.85;100744.31;5403759;32;34361;-66
2022/04/16 12:50:46;;;;;;;4.77;1.37;;;;;;;16.08;37.02;100744.09;5419880;32;34885;-67
2022/04/16 12:53:48;;;;;;;3.87;1.20;;;;;;;15.95;37.08;100746.56;5406387;32;34710;-68
2022/04/16 12:56:50;;;;;;;5.93;1.70;;;;;;;15.65;37.59;100753.59;5390931;32;34974;-68
2022/04/16 12:59:52;;;;;;;3.33;1.20;;;;;;;15.80;37.71;100734.19;5395560;32;43679;-66
2022/04/16 13:02:54;;;;;;;7.90;1.67;;;;;;;16.54;35.58;100730.84;5426231;32;35430;-68
2022/04/16 13:05:57;;;;;;;2.63;1.30;;;;;;;15.37;37.42;100749.72;5404059;32;34187;-68
2022/04/16 13:09:02;;;;;;;4.00;1.27;;;;;;;15.93;36.96;100739.66;5411350;32;34275;-66
2022/04/16 13:12:04;;;;;;;1.40;1.20;;;;;;;15.08;38.06;100743.31;5413184;32;35192;-66
2022/04/16 13:15:07;;;;;;;1.27;1.00;;;;;;;15.53;37.07;100738.31;5410406;32;34215;-67
2022/04/16 13:18:09;;;;;;;4.55;1.30;;;;;;;16.11;36.35;100735.97;5418179;32;36088;-70
2022/04/16 13:21:11;;;;;;;1.77;1.10;;;;;;;16.19;36.05;100736.41;5408441;32;34542;-68
2022/04/16 13:24:15;;;;;;;4.72;1.55;;;;;;;16.47;35.52;100740.09;5393962;32;35075;-66
2022/04/16 13:27:17;;;;;;;3.47;1.43;;;;;;;15.97;36.63;100744.72;5402665;32;35445;-68
2022/04/16 13:30:19;;;;;;;2.67;1.30;;;;;;;16.06;36.64;100745.13;5393843;32;34826;-69
2022/04/16 13:33:22;;;;;;;2.70;1.40;;;;;;;15.51;38.43;100759.56;5409245;32;46862;-67
2022/04/16 13:36:24;;;;;;;2.57;1.40;;;;;;;15.33;40.92;100756.13;5413936;32;35268;-67
2022/04/16 13:42:47;;;;;;;4.53;1.50;;;;;;;15.68;41.97;100753.41;5400056;32;36762;-68
2022/04/16 13:45:49;;;;;;;2.67;1.47;;;;;;;16.13;40.59;100747.34;5408986;32;36275;-69
2022/04/16 13:48:51;;;;;;;6.67;1.73;;;;;;;15.53;41.45;100749.78;5397064;32;37542;-67
2022/04/16 13:51:59;;;;;;;4.33;2.20;;;;;;;15.34;40.87;100759.63;5394722;32;34454;-69
2022/04/16 13:55:04;;;;;;;4.37;2.42;;;;;;;13.97;49.92;100762.03;5414625;32;34919;-68
2022/04/16 13:58:06;;;;;;;3.40;2.10;;;;;;;14.78;48.58;100760.75;5385370;32;35412;-69
2022/04/16 14:01:13;;;;;;;6.67;2.60;;;;;;;14.44;49.87;100762.41;5405421;32;34568;-66
2022/04/16 14:04:16;;;;;;;7.43;2.63;;;;;;;15.45;47.35;100767.84;5395685;32;34520;-68
2022/04/16 14:07:19;;;;;;;5.68;2.40;;;;;;;14.66;48.91;100774.59;5399077;32;35060;-67
2022/04/16 14:10:29;;;;;;;5.30;3.00;;;;;;;14.31;49.09;100777.16;5413722;32;45902;-67
2022/04/16 14:13:34;;;;;;;5.63;3.00;;;;;;;14.47;50.10;100790.53;5405809;32;34645;-67
2022/04/16 14:16:37;;;;;;;4.93;2.80;;;;;;;15.07;48.58;100786.63;5403506;32;35538;-68
2022/04/16 14:19:39;;;;;;;4.87;2.77;;;;;;;14.81;49.89;100784.41;5383323;32;34267;-69
2022/04/16 14:22:41;;;;;;;5.53;2.40;;;;;;;15.42;48.74;100782.13;5407184;32;34850;-68
2022/04/16 14:25:43;;;;;;;6.50;2.70;;;;;;;15.10;50.87;100780.28;5392253;32;34294;-68
2022/04/16 14:28:45;;;;;;;5.30;3.00;;;;;;;14.14;56.33;100787.69;5394526;32;34777;-68
2022/04/16 14:31:48;;;;;;;6.27;3.30;;;;;;;14.29;57.61;100794.88;5415619;32;35055;-68
2022/04/16 14:34:52;;;;;;;6.27;4.00;;;;;;;14.73;56.06;100794.53;5393086;32;34163;-69
2022/04/16 14:37:55;;;;;;;4.97;3.10;;;;;;;14.77;54.72;100806.69;5413973;32;46194;-69